| time (UTC) | temp F | wind direction | speed MPH | gust MPH | rain 1hr in | rain 24hr in | rain mn in | humidity % | barometer mb |
| 20260507181604 | 57 | 350 | 0.0 | 0.0 | 0.00 | 0.19 | 0.19 | 74 | 1010.0 |
| 20260507180057 | 58 | 350 | 0.0 | 0.0 | 0.00 | 0.19 | 0.19 | 72 | 1010.1 |
| 20260507174604 | 58 | 350 | 0.0 | 0.0 | 0.00 | 0.21 | 0.19 | 72 | 1010.1 |
| 20260507173055 | 58 | 350 | 0.0 | 0.0 | 0.00 | 0.21 | 0.19 | 70 | 1009.9 |
| 20260507171602 | 58 | 350 | 0.0 | 0.0 | 0.00 | 0.21 | 0.19 | 71 | 1010.2 |
| 20260507170054 | 57 | 350 | 0.0 | 0.0 | 0.00 | 0.21 | 0.19 | 73 | 1010.2 |
| 20260507164554 | 57 | 350 | 0.0 | 1.0 | 0.00 | 0.23 | 0.19 | 72 | 1010.4 |
| 20260507163056 | 57 | 338 | 0.0 | 1.0 | 0.00 | 0.23 | 0.19 | 73 | 1010.9 |
| 20260507161553 | 57 | 338 | 0.0 | 1.0 | 0.00 | 0.23 | 0.19 | 72 | 1011.1 |
| 20260507160055 | 57 | 338 | 0.0 | 1.0 | 0.00 | 0.23 | 0.19 | 71 | 1011.1 |
| 20260507154552 | 57 | 348 | 0.0 | 1.0 | 0.00 | 0.24 | 0.19 | 70 | 1011.2 |
| 20260507153058 | 57 | 348 | 0.0 | 2.0 | 0.00 | 0.24 | 0.19 | 70 | 1011.3 |
| 20260507151550 | 57 | 338 | 0.0 | 1.0 | 0.00 | 0.24 | 0.19 | 70 | 1011.5 |
| 20260507150051 | 57 | 327 | 0.0 | 2.0 | 0.00 | 0.24 | 0.19 | 69 | 1011.3 |
| 20260507144550 | 57 | 275 | 0.0 | 3.0 | 0.00 | 0.24 | 0.19 | 69 | 1011.5 |
| 20260507143050 | 57 | 248 | 0.0 | 2.0 | 0.00 | 0.24 | 0.19 | 71 | 1011.3 |
| 20260507141647 | 57 | 257 | 0.0 | 3.0 | 0.00 | 0.24 | 0.19 | 73 | 1011.1 |
| 20260507140050 | 56 | 284 | 0.0 | 3.0 | 0.00 | 0.24 | 0.19 | 77 | 1011.2 |
| 20260507134550 | 55 | 247 | 0.0 | 3.0 | 0.00 | 0.24 | 0.19 | 78 | 1011.3 |
| 20260507133045 | 55 | 318 | 0.0 | 1.0 | 0.00 | 0.24 | 0.19 | 80 | 1011.1 |
| 20260507131556 | 55 | 259 | 0.0 | 1.0 | 0.00 | 0.24 | 0.19 | 81 | 1011.5 |
| 20260507130100 | 54 | 263 | 0.0 | 1.0 | 0.00 | 0.24 | 0.19 | 82 | 1011.3 |
| 20260507124551 | 54 | 263 | 0.0 | 1.0 | 0.00 | 0.24 | 0.19 | 81 | 1011.2 |
| 20260507123043 | 54 | 263 | 0.0 | 1.0 | 0.00 | 0.24 | 0.19 | 82 | 1011.7 |
| 20260507121541 | 53 | 290 | 0.0 | 1.0 | 0.00 | 0.24 | 0.19 | 82 | 1011.3 |
| 20260507120043 | 53 | 322 | 0.0 | 3.0 | 0.00 | 0.24 | 0.19 | 81 | 1011.5 |
| 20260507114538 | 54 | 204 | 0.0 | 2.0 | 0.00 | 0.24 | 0.19 | 85 | 1011.7 |
| 20260507113037 | 54 | 209 | 0.0 | 2.0 | 0.00 | 0.24 | 0.19 | 86 | 1011.4 |
| 20260507111535 | 54 | 205 | 0.0 | 2.0 | 0.00 | 0.24 | 0.19 | 86 | 1011.3 |
| 20260507110033 | 54 | 214 | 0.0 | 1.0 | 0.00 | 0.24 | 0.19 | 87 | 1010.6 |
| 20260507104532 | 54 | 215 | 0.0 | 1.0 | 0.00 | 0.24 | 0.19 | 88 | 1010.8 |
| 20260507103033 | 54 | 215 | 0.0 | 1.0 | 0.00 | 0.24 | 0.19 | 88 | 1010.8 |
| 20260507101530 | 55 | 254 | 0.0 | 2.0 | 0.00 | 0.24 | 0.19 | 88 | 1010.4 |
| 20260507100034 | 55 | 242 | 0.0 | 1.0 | 0.00 | 0.24 | 0.19 | 88 | 1010.3 |
| 20260507094526 | 55 | 239 | 0.0 | 3.0 | 0.00 | 0.24 | 0.19 | 88 | 1010.5 |
| 20260507093025 | 56 | 287 | 1.0 | 2.0 | 0.00 | 0.24 | 0.19 | 88 | 1010.2 |
| 20260507091522 | 56 | 250 | 1.0 | 3.0 | 0.01 | 0.24 | 0.19 | 89 | 1010.0 |
| 20260507090118 | 57 | 248 | 0.0 | 2.0 | 0.01 | 0.24 | 0.19 | 91 | 1009.7 |
| 20260507084517 | 58 | 209 | 0.0 | 2.0 | 0.01 | 0.24 | 0.19 | 91 | 1009.9 |
| 20260507083015 | 58 | 206 | 0.0 | 2.0 | 0.01 | 0.24 | 0.19 | 91 | 1009.7 |
| 20260507081527 | 59 | 202 | 0.0 | 3.0 | 0.00 | 0.23 | 0.18 | 90 | 1009.6 |
| 20260507080009 | 62 | 261 | 2.0 | 4.0 | 0.00 | 0.23 | 0.18 | 91 | 1009.0 |
| 20260507074519 | 63 | 192 | 0.0 | 1.0 | 0.01 | 0.23 | 0.18 | 92 | 1008.5 |
| 20260507073008 | 63 | 167 | 0.0 | 1.0 | 0.01 | 0.23 | 0.18 | 92 | 1008.2 |
| 20260507071508 | 63 | 150 | 0.0 | 0.0 | 0.02 | 0.23 | 0.18 | 92 | 1007.9 |
| 20260507070010 | 63 | 150 | 0.0 | 0.0 | 0.03 | 0.23 | 0.18 | 92 | 1007.5 |
| 20260507064507 | 63 | 150 | 0.0 | 0.0 | 0.07 | 0.22 | 0.17 | 92 | 1008.3 |
| 20260507063003 | 63 | 150 | 0.0 | 0.0 | 0.17 | 0.22 | 0.17 | 92 | 1008.3 |
| 20260507061502 | 63 | 150 | 0.0 | 0.0 | 0.16 | 0.21 | 0.16 | 92 | 1008.6 |
| 20260507060107 | 63 | 150 | 0.0 | 0.0 | 0.15 | 0.20 | 0.15 | 92 | 1008.8 |
| 20260507054638 | 62 | 150 | 0.0 | 0.0 | 0.10 | 0.15 | 0.10 | 92 | 1008.7 |
| 20260507053057 | 61 | 150 | 0.0 | 0.0 | 0.00 | 0.05 | 0.00 | 91 | 1008.8 |
| 20260507051556 | 61 | 150 | 0.0 | 0.0 | 0.00 | 0.05 | 0.00 | 91 | 1008.9 |
| 20260507050058 | 61 | 150 | 0.0 | 0.0 | 0.00 | 0.05 | 0.00 | 90 | 1009.0 |
| 20260507044600 | 61 | 150 | 0.0 | 0.0 | 0.00 | 0.05 | 0.00 | 90 | 1009.0 |
| 20260507043053 | 61 | 150 | 0.0 | 0.0 | 0.00 | 0.05 | 0.00 | 90 | 1009.3 |
| 20260507041559 | 61 | 150 | 0.0 | 0.0 | 0.00 | 0.05 | 0.00 | 89 | 1009.4 |
| 20260507040046 | 62 | 150 | 0.0 | 0.0 | 0.00 | 0.05 | 0.00 | 90 | 1009.3 |
| 20260507034555 | 62 | 150 | 0.0 | 0.0 | 0.00 | 0.05 | 0.05 | 89 | 1008.8 |
| 20260507033046 | 62 | 150 | 0.0 | 0.0 | 0.00 | 0.05 | 0.05 | 89 | 1008.4 |
| 20260507031555 | 62 | 150 | 0.0 | 0.0 | 0.00 | 0.05 | 0.05 | 88 | 1008.5 |
| 20260507030050 | 63 | 150 | 0.0 | 0.0 | 0.00 | 0.05 | 0.05 | 87 | 1008.7 |
| 20260507024543 | 64 | 150 | 0.0 | 0.0 | 0.00 | 0.05 | 0.05 | 87 | 1008.9 |
| 20260507023038 | 64 | 150 | 0.0 | 0.0 | 0.00 | 0.05 | 0.05 | 86 | 1009.1 |
| 20260507021537 | 65 | 150 | 0.0 | 0.0 | 0.00 | 0.05 | 0.05 | 85 | 1009.0 |
| 20260507020036 | 65 | 150 | 0.0 | 0.0 | 0.00 | 0.05 | 0.05 | 84 | 1009.4 |
| 20260507014546 | 66 | 150 | 0.0 | 0.0 | 0.00 | 0.05 | 0.05 | 83 | 1009.2 |
| 20260507013036 | 66 | 150 | 0.0 | 0.0 | 0.00 | 0.05 | 0.05 | 82 | 1009.1 |
| 20260507011535 | 67 | 150 | 0.0 | 0.0 | 0.00 | 0.05 | 0.05 | 81 | 1009.2 |
| 20260507010040 | 68 | 150 | 0.0 | 0.0 | 0.00 | 0.05 | 0.05 | 80 | 1009.0 |
| 20260507004535 | 68 | 146 | 0.0 | 1.0 | 0.00 | 0.05 | 0.05 | 79 | 1009.3 |
| 20260507003035 | 68 | 182 | 0.0 | 0.0 | 0.00 | 0.05 | 0.05 | 79 | 1008.8 |
| 20260507001537 | 68 | 172 | 0.0 | 0.0 | 0.00 | 0.05 | 0.05 | 78 | 1008.7 |
| 20260507000038 | 69 | 173 | 0.0 | 0.0 | 0.00 | 0.05 | 0.05 | 78 | 1008.7 |
| 20260506234533 | 69 | 151 | 0.0 | 0.0 | 0.00 | 0.05 | 0.05 | 77 | 1008.6 |
| 20260506233036 | 69 | 151 | 0.0 | 0.0 | 0.00 | 0.05 | 0.05 | 76 | 1008.5 |
| 20260506231532 | 70 | 160 | 0.0 | 0.0 | 0.00 | 0.05 | 0.05 | 76 | 1008.4 |
| 20260506230031 | 70 | 149 | 0.0 | 1.0 | 0.00 | 0.05 | 0.05 | 75 | 1008.4 |
| 20260506224531 | 70 | 155 | 0.0 | 0.0 | 0.00 | 0.05 | 0.05 | 75 | 1008.5 |
| 20260506223030 | 71 | 194 | 0.0 | 1.0 | 0.00 | 0.05 | 0.05 | 74 | 1008.5 |
| 20260506221528 | 71 | 186 | 0.0 | 2.0 | 0.00 | 0.05 | 0.05 | 74 | 1008.7 |
| 20260506220028 | 70 | 159 | 0.0 | 1.0 | 0.00 | 0.05 | 0.05 | 75 | 1008.7 |
| 20260506214527 | 70 | 177 | 0.0 | 1.0 | 0.00 | 0.05 | 0.05 | 76 | 1008.6 |
| 20260506213027 | 70 | 175 | 0.0 | 1.0 | 0.00 | 0.05 | 0.05 | 75 | 1008.9 |
| 20260506211526 | 70 | 164 | 0.0 | 1.0 | 0.00 | 0.05 | 0.05 | 75 | 1008.8 |
| 20260506210028 | 70 | 182 | 0.0 | 2.0 | 0.00 | 0.05 | 0.05 | 74 | 1008.7 |
| 20260506204526 | 70 | 148 | 0.0 | 2.0 | 0.00 | 0.05 | 0.05 | 75 | 1008.8 |
| 20260506203025 | 70 | 174 | 0.0 | 2.0 | 0.00 | 0.05 | 0.05 | 75 | 1008.7 |
| 20260506201523 | 70 | 155 | 0.0 | 3.0 | 0.00 | 0.05 | 0.05 | 75 | 1009.0 |
| 20260506200023 | 70 | 171 | 0.0 | 3.0 | 0.00 | 0.05 | 0.05 | 75 | 1009.1 |
| 20260506194522 | 70 | 167 | 0.0 | 7.0 | 0.00 | 0.05 | 0.05 | 76 | 1009.1 |
| 20260506193020 | 70 | 114 | 0.0 | 3.0 | 0.00 | 0.05 | 0.05 | 76 | 1008.9 |
| 20260506191520 | 70 | 121 | 0.0 | 3.0 | 0.00 | 0.05 | 0.05 | 76 | 1009.1 |
| 20260506190018 | 70 | 120 | 1.0 | 4.0 | 0.00 | 0.05 | 0.05 | 76 | 1009.6 |
| 20260506184516 | 69 | 182 | 0.0 | 2.0 | 0.00 | 0.05 | 0.05 | 79 | 1009.9 |
| 20260506183016 | 68 | 126 | 0.0 | 2.0 | 0.00 | 0.05 | 0.05 | 81 | 1009.9 |